createdAt,value
2017-08-30T00:01:06.838Z,19.36
2017-08-30T00:02:29.673Z,19.36
2017-08-30T00:03:51.811Z,19.39
2017-08-30T00:05:13.623Z,19.36
2017-08-30T00:06:35.460Z,19.33
2017-08-30T00:07:57.853Z,19.32
2017-08-30T00:09:19.180Z,19.31
2017-08-30T00:10:41.021Z,19.26
2017-08-30T00:12:03.214Z,19.14
2017-08-30T00:13:25.126Z,19.13
2017-08-30T00:14:46.935Z,19.02
2017-08-30T00:16:08.761Z,19.06
2017-08-30T00:17:30.913Z,19.02
2017-08-30T00:18:53.640Z,18.99
2017-08-30T00:20:15.575Z,19
2017-08-30T00:21:37.079Z,18.91
2017-08-30T00:22:58.593Z,18.88
2017-08-30T00:24:20.498Z,18.84
2017-08-30T00:25:42.001Z,18.85
2017-08-30T00:27:04.484Z,18.94
2017-08-30T00:28:26.317Z,18.91
2017-08-30T00:29:47.734Z,18.87
2017-08-30T00:31:09.587Z,18.81
2017-08-30T00:32:30.790Z,18.9
2017-08-30T00:33:52.926Z,18.9
2017-08-30T00:35:15.434Z,18.87
2017-08-30T00:36:37.297Z,18.84
2017-08-30T00:37:59.764Z,18.84
2017-08-30T00:39:21.377Z,18.87
2017-08-30T00:40:43.255Z,18.85
2017-08-30T00:42:05.103Z,18.88
2017-08-30T00:43:26.614Z,18.94
2017-08-30T00:44:48.794Z,18.92
2017-08-30T00:46:11.282Z,18.85
2017-08-30T00:47:32.834Z,18.81
2017-08-30T00:48:55.484Z,18.84
2017-08-30T00:50:17.317Z,18.78
2017-08-30T00:51:39.744Z,18.81
2017-08-30T00:53:02.203Z,18.81
2017-08-30T00:54:23.714Z,18.73
2017-08-30T00:55:45.536Z,18.85
2017-08-30T00:57:07.698Z,18.76
2017-08-30T00:58:29.813Z,18.75
2017-08-30T00:59:51.366Z,18.73
2017-08-30T01:01:13.017Z,18.8
2017-08-30T01:02:35.530Z,18.82
2017-08-30T01:03:57.074Z,18.78
2017-08-30T01:05:18.257Z,18.75
2017-08-30T01:06:40.414Z,18.73
2017-08-30T01:08:02.496Z,18.84
2017-08-30T01:09:24.793Z,18.7
2017-08-30T01:10:46.993Z,18.73
2017-08-30T01:12:08.494Z,18.73
2017-08-30T01:13:30.276Z,18.62
2017-08-30T01:14:52.473Z,18.69
2017-08-30T01:16:14.287Z,18.66
2017-08-30T01:17:36.527Z,18.58
2017-08-30T01:18:59.064Z,18.62
2017-08-30T01:20:20.901Z,18.57
2017-08-30T01:21:43.053Z,18.6
2017-08-30T01:23:04.717Z,18.52
2017-08-30T01:24:26.847Z,18.5
2017-08-30T01:25:48.994Z,18.48
2017-08-30T01:27:11.145Z,18.5
2017-08-30T01:28:33.311Z,18.44
2017-08-30T01:29:55.784Z,18.41
2017-08-30T01:31:18.304Z,18.41
2017-08-30T01:32:40.454Z,18.33
2017-08-30T01:34:02.424Z,18.3
2017-08-30T01:35:24.880Z,18.33
2017-08-30T01:36:46.705Z,18.25
2017-08-30T01:38:09.185Z,18.26
2017-08-30T01:39:31.314Z,18.23
2017-08-30T01:40:53.730Z,18.2
2017-08-30T01:42:16.206Z,18.25
2017-08-30T01:43:37.395Z,18.18
2017-08-30T01:44:59.554Z,18.21
2017-08-30T01:46:21.194Z,18.2
2017-08-30T01:47:42.715Z,18.05
2017-08-30T01:49:05.014Z,18.17
2017-08-30T01:50:26.845Z,18.14
2017-08-30T01:51:48.934Z,18.1
2017-08-30T01:53:11.452Z,18.05
2017-08-30T01:54:33.608Z,18.1
2017-08-30T01:55:56.095Z,18.1
2017-08-30T01:57:18.544Z,18.08
2017-08-30T01:58:41.117Z,17.95
2017-08-30T02:00:02.944Z,17.97
2017-08-30T02:01:25.097Z,17.95
2017-08-30T02:02:46.962Z,17.9
2017-08-30T02:04:09.101Z,17.95
2017-08-30T02:05:30.912Z,17.92
2017-08-30T02:06:52.445Z,17.93
2017-08-30T02:08:13.954Z,17.93
2017-08-30T02:09:35.788Z,17.99
2017-08-30T02:10:57.919Z,17.97
2017-08-30T02:12:20.117Z,17.99
2017-08-30T02:13:42.502Z,18.02
2017-08-30T02:15:04.018Z,17.92
2017-08-30T02:16:26.176Z,17.95
2017-08-30T02:17:48.306Z,17.92
2017-08-30T02:19:10.722Z,17.9
2017-08-30T02:20:32.868Z,17.86
2017-08-30T02:21:54.371Z,17.87
2017-08-30T02:23:15.905Z,17.89
2017-08-30T02:24:38.091Z,17.87
2017-08-30T02:26:00.587Z,17.9
2017-08-30T02:27:22.745Z,17.95
2017-08-30T02:28:43.925Z,17.99
2017-08-30T02:30:05.364Z,18.1
2017-08-30T02:31:26.866Z,18.03
2017-08-30T02:32:48.376Z,18.1
2017-08-30T02:34:10.211Z,18.15
2017-08-30T02:35:31.645Z,18.15
2017-08-30T02:36:53.244Z,18.18
2017-08-30T02:38:15.094Z,18.15
2017-08-30T02:39:36.999Z,18.18
2017-08-30T02:40:59.495Z,18.2
2017-08-30T02:42:21.664Z,18.21
2017-08-30T02:43:43.826Z,18.25
2017-08-30T02:45:06.403Z,18.36
2017-08-30T02:46:29.320Z,18.27
2017-08-30T02:47:51.265Z,18.29
2017-08-30T02:49:12.547Z,18.29
2017-08-30T02:50:34.686Z,18.35
2017-08-30T02:51:56.879Z,18.37
2017-08-30T02:53:19.026Z,18.42
2017-08-30T02:54:40.525Z,18.33
2017-08-30T02:56:02.666Z,18.39
2017-08-30T02:57:24.942Z,18.39
2017-08-30T02:58:47.443Z,18.41
2017-08-30T03:00:09.272Z,18.35
2017-08-30T03:01:31.484Z,18.32
2017-08-30T03:02:53.955Z,18.36
2017-08-30T03:04:16.424Z,18.33
2017-08-30T03:05:38.264Z,18.37
2017-08-30T03:07:00.432Z,18.35
2017-08-30T03:08:22.194Z,18.33
2017-08-30T03:09:44.043Z,18.26
2017-08-30T03:11:06.198Z,18.32
2017-08-30T03:12:27.811Z,18.3
2017-08-30T03:13:50.284Z,18.25
2017-08-30T03:15:12.124Z,18.26
2017-08-30T03:16:34.313Z,18.26
2017-08-30T03:17:56.473Z,18.26
2017-08-30T03:19:18.723Z,18.21
2017-08-30T03:20:40.884Z,18.23
2017-08-30T03:22:03.022Z,18.2
2017-08-30T03:23:24.644Z,18.2
2017-08-30T03:24:46.829Z,18.21
2017-08-30T03:26:08.342Z,18.18
2017-08-30T03:27:30.501Z,18.12
2017-08-30T03:28:52.786Z,18.25
2017-08-30T03:30:15.173Z,18.15
2017-08-30T03:31:37.005Z,18.17
2017-08-30T03:32:59.416Z,18.27
2017-08-30T03:34:21.242Z,18.15
2017-08-30T03:35:43.821Z,18.26
2017-08-30T03:37:04.713Z,18.25
2017-08-30T03:38:26.584Z,18.21
2017-08-30T03:39:48.723Z,18.27
2017-08-30T03:41:11.233Z,18.23
2017-08-30T03:42:33.172Z,18.2
2017-08-30T03:43:54.672Z,18.26
2017-08-30T03:45:16.502Z,18.18
2017-08-30T03:46:38.004Z,18.23
2017-08-30T03:48:00.173Z,18.27
2017-08-30T03:49:22.363Z,18.27
2017-08-30T03:50:44.195Z,18.35
2017-08-30T03:52:06.324Z,18.3
2017-08-30T03:53:28.483Z,18.27
2017-08-30T03:54:50.660Z,18.35
2017-08-30T03:56:12.194Z,18.3
2017-08-30T03:57:34.443Z,18.32
2017-08-30T03:58:56.590Z,18.33
2017-08-30T04:00:18.095Z,18.37
2017-08-30T04:01:40.263Z,18.36
2017-08-30T04:03:02.655Z,18.36
2017-08-30T04:04:25.131Z,18.41
2017-08-30T04:05:46.851Z,18.45
2017-08-30T04:07:08.682Z,18.47
2017-08-30T04:08:31.082Z,18.48
2017-08-30T04:09:52.943Z,18.42
2017-08-30T04:11:14.466Z,18.42
2017-08-30T04:12:36.924Z,18.44
2017-08-30T04:13:59.518Z,18.41
2017-08-30T04:15:21.361Z,18.47
2017-08-30T04:16:42.541Z,18.5
2017-08-30T04:18:03.743Z,18.48
2017-08-30T04:19:26.237Z,18.48
2017-08-30T04:20:47.101Z,18.48
2017-08-30T04:22:08.292Z,18.5
2017-08-30T04:23:30.133Z,18.42
2017-08-30T04:24:52.254Z,18.44
2017-08-30T04:26:14.433Z,18.44
2017-08-30T04:27:36.262Z,18.51
2017-08-30T04:28:57.756Z,18.5
2017-08-30T04:30:20.155Z,18.52
2017-08-30T04:31:42.312Z,18.52
2017-08-30T04:33:04.474Z,18.5
2017-08-30T04:34:25.993Z,18.5
2017-08-30T04:35:47.450Z,18.51
2017-08-30T04:37:09.922Z,18.54
2017-08-30T04:38:32.077Z,18.54
2017-08-30T04:39:54.291Z,18.51
2017-08-30T04:41:16.750Z,18.5
2017-08-30T04:42:37.616Z,18.51
2017-08-30T04:43:59.442Z,18.51
2017-08-30T04:45:21.373Z,18.5
2017-08-30T04:46:43.763Z,18.5
2017-08-30T04:48:05.627Z,18.52
2017-08-30T04:49:27.465Z,18.51
2017-08-30T04:50:49.632Z,18.52
2017-08-30T04:52:11.380Z,18.54
2017-08-30T04:53:33.234Z,18.52
2017-08-30T04:54:55.072Z,18.57
2017-08-30T04:56:17.232Z,18.63
2017-08-30T04:57:39.489Z,18.63
2017-08-30T04:59:01.333Z,18.66
2017-08-30T05:00:23.180Z,18.75
2017-08-30T05:01:45.352Z,18.72
2017-08-30T05:03:07.896Z,18.82
2017-08-30T05:04:30.073Z,18.85
2017-08-30T05:05:51.934Z,18.81
2017-08-30T05:07:14.084Z,18.88
2017-08-30T05:08:36.962Z,18.85
2017-08-30T05:09:58.582Z,18.94
2017-08-30T05:11:20.423Z,18.95
2017-08-30T05:12:42.262Z,18.98
2017-08-30T05:14:04.862Z,18.88
2017-08-30T05:15:27.327Z,18.99
2017-08-30T05:16:49.468Z,19
2017-08-30T05:18:10.972Z,19.02
2017-08-30T05:19:33.423Z,19.07
2017-08-30T05:20:55.274Z,19.21
2017-08-30T05:22:16.768Z,19.31
2017-08-30T05:23:38.944Z,19.47
2017-08-30T05:25:01.673Z,19.55
2017-08-30T05:26:23.839Z,19.59
2017-08-30T05:27:46.529Z,19.65
2017-08-30T05:29:08.693Z,19.73
2017-08-30T05:30:30.779Z,19.76
2017-08-30T05:31:52.620Z,19.81
2017-08-30T05:33:14.767Z,19.81
2017-08-30T05:34:36.942Z,19.74
2017-08-30T05:35:58.702Z,19.78
2017-08-30T05:37:21.174Z,19.84
2017-08-30T05:38:42.679Z,19.88
2017-08-30T05:40:05.222Z,19.99
2017-08-30T05:41:27.329Z,19.98
2017-08-30T05:42:49.163Z,19.98
2017-08-30T05:44:11.353Z,20.03
2017-08-30T05:45:33.243Z,20.06
2017-08-30T05:46:55.392Z,20.24
2017-08-30T05:48:17.681Z,20.61
2017-08-30T05:49:39.842Z,21.16
2017-08-30T05:51:01.434Z,21.38
2017-08-30T05:52:23.905Z,21.68
2017-08-30T05:53:45.735Z,21.65
2017-08-30T05:55:06.950Z,21.53
2017-08-30T05:56:29.113Z,21.53
2017-08-30T05:57:51.702Z,21.53
2017-08-30T05:59:13.873Z,21.38
2017-08-30T06:00:36.055Z,21.27
2017-08-30T06:01:57.566Z,21.35
2017-08-30T06:03:19.962Z,21.28
2017-08-30T06:04:42.429Z,21.32
2017-08-30T06:06:04.676Z,21.29
2017-08-30T06:07:26.516Z,21.49
2017-08-30T06:08:49.364Z,21.82
2017-08-30T06:10:11.513Z,22.28
2017-08-30T06:11:33.682Z,22.7
2017-08-30T06:12:55.833Z,22.92
2017-08-30T06:14:18.044Z,23.33
2017-08-30T06:15:40.511Z,23.54
2017-08-30T06:17:03.142Z,24.1
2017-08-30T06:18:25.322Z,24.57
2017-08-30T06:19:47.577Z,24.85
2017-08-30T06:21:10.143Z,25.05
2017-08-30T06:22:32.613Z,25.17
2017-08-30T06:23:54.906Z,25.57
2017-08-30T06:25:17.377Z,25.79
2017-08-30T06:26:38.889Z,26.02
2017-08-30T06:28:00.452Z,26.15
2017-08-30T06:29:22.627Z,26.05
2017-08-30T06:30:44.734Z,25.77
2017-08-30T06:32:06.915Z,25.47
2017-08-30T06:33:29.095Z,25.17
2017-08-30T06:34:51.273Z,24.31
2017-08-30T06:36:13.374Z,23.65
2017-08-30T06:37:35.864Z,23.28
2017-08-30T06:38:57.771Z,23.05
2017-08-30T06:40:19.672Z,23.1
2017-08-30T06:41:41.834Z,22.98
2017-08-30T06:43:04.381Z,22.79
2017-08-30T06:44:26.534Z,22.72
2017-08-30T06:45:48.075Z,22.79
2017-08-30T06:47:10.182Z,22.76
2017-08-30T06:48:31.703Z,22.79
2017-08-30T06:49:53.280Z,22.73
2017-08-30T06:51:15.142Z,22.64
2017-08-30T06:52:37.663Z,22.67
2017-08-30T06:53:59.825Z,22.55
2017-08-30T06:55:22.442Z,22.86
2017-08-30T06:56:44.601Z,23.57
2017-08-30T06:58:06.686Z,24.78
2017-08-30T06:59:28.524Z,25.54
2017-08-30T07:00:51.094Z,26.29
2017-08-30T07:02:13.298Z,27.17
2017-08-30T07:03:35.524Z,27.65
2017-08-30T07:04:57.509Z,28.14
2017-08-30T07:06:20.014Z,28.59
2017-08-30T07:07:42.189Z,28.56
2017-08-30T07:09:04.351Z,28.77
2017-08-30T07:10:26.835Z,29.06
2017-08-30T07:11:48.998Z,29.14
2017-08-30T07:13:10.826Z,28.88
2017-08-30T07:14:33.308Z,28.33
2017-08-30T07:15:55.169Z,27.93
2017-08-30T07:17:17.353Z,27.13
2017-08-30T07:18:40.137Z,26.01
2017-08-30T07:20:02.822Z,25.67
2017-08-30T07:21:24.991Z,25.5
2017-08-30T07:22:47.187Z,25.27
2017-08-30T07:24:09.016Z,25.05
2017-08-30T07:25:31.432Z,24.85
2017-08-30T07:26:53.925Z,24.73
2017-08-30T07:28:15.434Z,25
2017-08-30T07:29:37.594Z,25.1
2017-08-30T07:31:00.154Z,25.27
2017-08-30T07:32:22.003Z,25.46
2017-08-30T07:33:43.873Z,25.73
2017-08-30T07:35:06.387Z,25.77
2017-08-30T07:36:28.142Z,25.64
2017-08-30T07:37:50.365Z,25.43
2017-08-30T07:39:12.842Z,25.4
2017-08-30T07:40:35.323Z,25.45
2017-08-30T07:41:57.434Z,25.47
2017-08-30T07:43:20.001Z,25.61
2017-08-30T07:44:41.886Z,25.73
2017-08-30T07:46:04.040Z,25.95
2017-08-30T07:47:26.662Z,26.13
2017-08-30T07:48:48.508Z,26.43
2017-08-30T07:50:10.642Z,26.57
2017-08-30T07:51:32.471Z,26.85
2017-08-30T07:52:55.045Z,26.88
2017-08-30T07:54:17.204Z,26.81
2017-08-30T07:55:39.363Z,26.73
2017-08-30T07:57:01.354Z,26.66
2017-08-30T07:58:23.750Z,26.47
2017-08-30T07:59:46.042Z,26.29
2017-08-30T08:01:08.349Z,26.23
2017-08-30T08:02:29.233Z,25.91
2017-08-30T08:03:51.381Z,25.94
2017-08-30T08:05:13.246Z,26.02
2017-08-30T08:06:35.843Z,26.05
2017-08-30T08:07:57.195Z,25.9
2017-08-30T08:09:19.546Z,25.92
2017-08-30T08:10:41.792Z,25.9
2017-08-30T08:12:03.642Z,26.01
2017-08-30T08:13:25.496Z,26.47
2017-08-30T08:14:47.645Z,26.8
2017-08-30T08:16:10.290Z,27.09
2017-08-30T08:17:32.435Z,27.27
2017-08-30T08:18:54.036Z,27.22
2017-08-30T08:20:16.812Z,27.29
2017-08-30T08:21:39.058Z,27.14
2017-08-30T08:23:00.902Z,26.89
2017-08-30T08:24:22.221Z,26.76
2017-08-30T08:25:44.942Z,26.85
2017-08-30T08:27:06.581Z,26.81
2017-08-30T08:28:28.422Z,27.21
2017-08-30T08:29:50.570Z,27.36
2017-08-30T08:31:13.583Z,27.51
2017-08-30T08:32:35.738Z,27.12
2017-08-30T08:33:57.882Z,27.27
2017-08-30T08:35:19.413Z,27.21
2017-08-30T08:36:41.503Z,27.49
2017-08-30T08:38:03.792Z,27.92
2017-08-30T08:39:25.963Z,28.34
2017-08-30T08:40:48.459Z,28.67
2017-08-30T08:42:10.254Z,28.92
2017-08-30T08:43:32.722Z,29
2017-08-30T08:44:54.595Z,29.19
2017-08-30T08:46:17.082Z,29.31
2017-08-30T08:47:39.498Z,29.14
2017-08-30T08:49:01.343Z,28.98
2017-08-30T08:50:22.861Z,28.73
2017-08-30T08:51:45.042Z,28.68
2017-08-30T08:53:07.238Z,28.83
2017-08-30T08:54:29.717Z,28.96
2017-08-30T08:55:52.222Z,28.9
2017-08-30T08:57:14.110Z,29.11
2017-08-30T08:58:35.939Z,29.27
2017-08-30T08:59:57.794Z,29.41
2017-08-30T09:01:19.312Z,29.31
2017-08-30T09:02:41.492Z,29.37
2017-08-30T09:04:04.322Z,29.26
2017-08-30T09:05:26.264Z,29.34
2017-08-30T09:06:48.429Z,29.39
2017-08-30T09:08:10.460Z,28.95
2017-08-30T09:09:32.606Z,29.05
2017-08-30T09:10:54.770Z,29.43
2017-08-30T09:12:16.373Z,29.71
2017-08-30T09:13:38.542Z,29.53
2017-08-30T09:15:01.043Z,29.57
2017-08-30T09:16:23.552Z,29.15
2017-08-30T09:17:45.703Z,28.81
2017-08-30T09:19:07.542Z,28.81
2017-08-30T09:20:30.293Z,28.93
2017-08-30T09:21:52.460Z,28.98
2017-08-30T09:23:14.297Z,28.93
2017-08-30T09:24:36.472Z,28.33
2017-08-30T09:25:59.212Z,28.09
2017-08-30T09:27:21.755Z,27.99
2017-08-30T09:28:43.951Z,28.03
2017-08-30T09:30:06.123Z,28.11
2017-08-30T09:31:28.945Z,28.04
2017-08-30T09:32:51.417Z,28.34
2017-08-30T09:34:13.906Z,28.19
2017-08-30T09:35:36.412Z,28.43
2017-08-30T09:36:58.491Z,28.78
2017-08-30T09:38:20.662Z,29.02
2017-08-30T09:39:42.806Z,29.15
2017-08-30T09:41:04.652Z,29.26
2017-08-30T09:42:27.070Z,29.15
2017-08-30T09:43:48.935Z,28.93
2017-08-30T09:45:11.152Z,28.7
2017-08-30T09:46:33.413Z,28.09
2017-08-30T09:47:55.872Z,28.11
2017-08-30T09:49:18.403Z,28.44
2017-08-30T09:50:40.905Z,28.56
2017-08-30T09:52:03.274Z,28.85
2017-08-30T09:53:25.842Z,28.73
2017-08-30T09:54:48.321Z,28.86
2017-08-30T09:56:09.996Z,28.96
2017-08-30T09:57:31.193Z,28.43
2017-08-30T09:58:53.931Z,28.25
2017-08-30T10:00:15.455Z,28.49
2017-08-30T10:01:37.297Z,28.61
2017-08-30T10:02:59.162Z,28.71
2017-08-30T10:04:21.301Z,28.78
2017-08-30T10:05:43.332Z,28.89
2017-08-30T10:07:05.540Z,28.78
2017-08-30T10:08:27.522Z,28.64
2017-08-30T10:09:49.632Z,28.48
2017-08-30T10:11:11.282Z,28.44
2017-08-30T10:12:32.794Z,28.33
2017-08-30T10:13:55.362Z,28.22
2017-08-30T10:15:18.122Z,27.65
2017-08-30T10:16:39.633Z,27.67
2017-08-30T10:18:02.106Z,26.81
2017-08-30T10:19:23.952Z,26.97
2017-08-30T10:20:46.384Z,26.77
2017-08-30T10:22:08.547Z,27
2017-08-30T10:23:30.729Z,26.84
2017-08-30T10:24:52.253Z,26.88
2017-08-30T10:26:14.544Z,26.88
2017-08-30T10:27:36.724Z,26.82
2017-08-30T10:28:58.991Z,26.65
2017-08-30T10:30:21.156Z,26.65
2017-08-30T10:31:43.246Z,26.88
2017-08-30T10:33:05.491Z,26.72
2017-08-30T10:34:27.692Z,26.66
2017-08-30T10:35:48.905Z,26.69
2017-08-30T10:37:10.772Z,26.55
2017-08-30T10:38:32.303Z,26.63
2017-08-30T10:39:54.480Z,26.57
2017-08-30T10:41:16.316Z,26.48
2017-08-30T10:42:38.788Z,26.26
2017-08-30T10:44:00.963Z,26.1
2017-08-30T10:45:23.232Z,26.02
2017-08-30T10:46:45.402Z,26.15
2017-08-30T10:48:07.499Z,26.25
2017-08-30T10:49:29.361Z,26.01
2017-08-30T10:50:51.522Z,26.25
2017-08-30T10:52:13.374Z,26.45
2017-08-30T10:53:35.202Z,26.81
2017-08-30T10:54:57.372Z,27
2017-08-30T10:56:19.217Z,27.25
2017-08-30T10:57:41.440Z,26.88
2017-08-30T10:59:03.712Z,26.76
2017-08-30T11:00:25.239Z,26.66
2017-08-30T11:01:47.417Z,26.47
2017-08-30T11:03:09.726Z,27.07
2017-08-30T11:04:32.401Z,27.19
2017-08-30T11:05:54.297Z,26.97
2017-08-30T11:07:16.133Z,27.04
2017-08-30T11:08:37.650Z,26.88
2017-08-30T11:09:59.780Z,27.31
2017-08-30T11:11:22.273Z,27.69
2017-08-30T11:12:44.519Z,27.54
2017-08-30T11:14:06.693Z,27.19
2017-08-30T11:15:29.469Z,27.27
2017-08-30T11:16:51.764Z,27.66
2017-08-30T11:18:14.236Z,27.88
2017-08-30T11:19:36.104Z,27.66
2017-08-30T11:20:58.355Z,27.39
2017-08-30T11:22:20.209Z,27.18
2017-08-30T11:23:42.364Z,26.85
2017-08-30T11:25:04.211Z,26.48
2017-08-30T11:26:27.044Z,26.21
2017-08-30T11:27:49.241Z,26.05
2017-08-30T11:29:10.768Z,25.92
2017-08-30T11:30:32.636Z,25.79
2017-08-30T11:31:55.209Z,25.76
2017-08-30T11:33:16.732Z,25.72
2017-08-30T11:34:38.901Z,25.76
2017-08-30T11:36:01.066Z,25.7
2017-08-30T11:37:23.526Z,25.85
2017-08-30T11:38:45.843Z,25.64
2017-08-30T11:40:08.006Z,25.72
2017-08-30T11:41:29.853Z,25.67
2017-08-30T11:42:52.749Z,25.69
2017-08-30T11:44:14.583Z,25.5
2017-08-30T11:45:37.146Z,25.51
2017-08-30T11:46:59.320Z,25.43
2017-08-30T11:48:21.902Z,25.24
2017-08-30T11:49:44.062Z,24.93
2017-08-30T11:51:05.910Z,25.06
2017-08-30T11:52:27.830Z,25
2017-08-30T11:53:49.131Z,24.93
2017-08-30T11:55:11.022Z,24.84
2017-08-30T11:56:32.902Z,24.81
2017-08-30T11:57:54.432Z,24.84
2017-08-30T11:59:17.265Z,24.69
2017-08-30T12:00:39.142Z,24.61
2017-08-30T12:02:01.115Z,24.42
2017-08-30T12:03:23.334Z,24.6
2017-08-30T12:04:45.231Z,24.81
2017-08-30T12:06:07.229Z,24.81
2017-08-30T12:07:29.400Z,25.02
2017-08-30T12:08:51.238Z,25.15
2017-08-30T12:10:13.443Z,25.15
2017-08-30T12:11:35.614Z,25.25
2017-08-30T12:12:58.109Z,25.24
2017-08-30T12:14:20.602Z,25.38
2017-08-30T12:15:42.784Z,25.47
2017-08-30T12:17:05.287Z,25.55
2017-08-30T12:18:27.176Z,25.61
2017-08-30T12:19:49.795Z,25.43
2017-08-30T12:21:11.904Z,25.39
2017-08-30T12:22:34.410Z,25.3
2017-08-30T12:23:56.567Z,25.24
2017-08-30T12:25:17.775Z,25.35
2017-08-30T12:26:39.666Z,25.27
2017-08-30T12:28:00.856Z,24.99
2017-08-30T12:29:23.196Z,24.93
2017-08-30T12:30:45.358Z,24.84
2017-08-30T12:32:08.185Z,24.84
2017-08-30T12:33:30.716Z,24.8
2017-08-30T12:34:52.886Z,24.83
2017-08-30T12:36:15.385Z,24.99
2017-08-30T12:37:38.231Z,25.05
2017-08-30T12:39:00.470Z,25.06
2017-08-30T12:40:22.705Z,25.1
2017-08-30T12:41:45.195Z,25.23
2017-08-30T12:43:08.055Z,25.13
2017-08-30T12:44:30.557Z,25.15
2017-08-30T12:45:52.095Z,24.87
2017-08-30T12:47:14.285Z,24.9
2017-08-30T12:48:37.185Z,24.99
2017-08-30T12:49:59.673Z,25.05
2017-08-30T12:51:21.865Z,25.23
2017-08-30T12:52:44.898Z,25.62
2017-08-30T12:54:07.104Z,25.67
2017-08-30T12:55:29.077Z,25.85
2017-08-30T12:56:51.569Z,25.88
2017-08-30T12:58:13.723Z,25.98
2017-08-30T12:59:36.521Z,25.97
2017-08-30T13:00:59.703Z,25.83
2017-08-30T13:02:21.878Z,25.72
2017-08-30T13:03:44.050Z,25.75
2017-08-30T13:05:06.850Z,25.79
2017-08-30T13:06:28.803Z,26.05
2017-08-30T13:07:51.432Z,25.99
2017-08-30T13:09:13.589Z,26.01
2017-08-30T13:10:36.112Z,26.17
2017-08-30T13:11:58.611Z,25.99
2017-08-30T13:13:20.523Z,25.98
2017-08-30T13:14:42.686Z,25.92
2017-08-30T13:16:05.256Z,25.82
2017-08-30T13:17:27.870Z,25.75
2017-08-30T13:18:49.782Z,25.7
2017-08-30T13:20:11.615Z,25.65
2017-08-30T13:21:33.962Z,25.7
2017-08-30T13:22:56.149Z,25.82
2017-08-30T13:24:17.769Z,25.85
2017-08-30T13:25:39.931Z,25.57
2017-08-30T13:27:02.455Z,25.09
2017-08-30T13:28:24.441Z,24.77
2017-08-30T13:29:46.694Z,24.49
2017-08-30T13:31:09.218Z,24.46
2017-08-30T13:32:31.104Z,24.62
2017-08-30T13:33:53.290Z,24.69
2017-08-30T13:35:15.164Z,24.99
2017-08-30T13:36:37.329Z,25.23
2017-08-30T13:37:59.863Z,25.32
2017-08-30T13:39:22.131Z,25.47
2017-08-30T13:40:43.991Z,25.58
2017-08-30T13:42:06.150Z,25.65
2017-08-30T13:43:28.644Z,25.69
2017-08-30T13:44:50.500Z,25.76
2017-08-30T13:46:12.349Z,25.76
2017-08-30T13:47:34.520Z,25.94
2017-08-30T13:48:57.060Z,26.01
2017-08-30T13:50:19.399Z,26.01
2017-08-30T13:51:41.703Z,26.13
2017-08-30T13:53:04.220Z,26.23
2017-08-30T13:54:25.801Z,26.01
2017-08-30T13:55:48.074Z,26.06
2017-08-30T13:57:10.254Z,26.02
2017-08-30T13:58:32.424Z,26.06
2017-08-30T13:59:54.751Z,25.88
2017-08-30T14:01:17.371Z,25.73
2017-08-30T14:02:39.570Z,25.76
2017-08-30T14:04:02.100Z,25.77
2017-08-30T14:05:24.858Z,25.76
2017-08-30T14:06:47.167Z,25.62
2017-08-30T14:08:09.662Z,25.76
2017-08-30T14:09:32.273Z,25.92
2017-08-30T14:10:54.691Z,25.97
2017-08-30T14:12:16.890Z,25.99
2017-08-30T14:13:39.082Z,25.97
2017-08-30T14:15:00.631Z,26.02
2017-08-30T14:16:23.465Z,26.02
2017-08-30T14:17:45.401Z,25.99
2017-08-30T14:19:07.941Z,26.15
2017-08-30T14:20:30.191Z,26.15
2017-08-30T14:21:53.012Z,26.44
2017-08-30T14:23:15.192Z,26.67
2017-08-30T14:24:37.530Z,26.84
2017-08-30T14:25:59.703Z,26.97
2017-08-30T14:27:21.744Z,27.12
2017-08-30T14:28:43.930Z,27.12
2017-08-30T14:30:06.131Z,27.19
2017-08-30T14:31:28.350Z,27.12
2017-08-30T14:32:50.564Z,27.06
2017-08-30T14:34:12.781Z,27.18
2017-08-30T14:35:35.002Z,27.19
2017-08-30T14:36:57.190Z,27.34
2017-08-30T14:38:19.422Z,27.6
2017-08-30T14:39:41.581Z,27.85
2017-08-30T14:41:03.450Z,28.04
2017-08-30T14:42:25.378Z,28.33
2017-08-30T14:43:48.280Z,28.52
2017-08-30T14:45:10.882Z,28.73
2017-08-30T14:46:33.063Z,28.77
2017-08-30T14:47:55.355Z,28.89
2017-08-30T14:49:17.884Z,28.81
2017-08-30T14:50:40.103Z,28.73
2017-08-30T14:52:02.632Z,28.67
2017-08-30T14:53:25.183Z,28.4
2017-08-30T14:54:48.034Z,28.4
2017-08-30T14:56:10.540Z,28.46
2017-08-30T14:57:33.150Z,28.43
2017-08-30T14:58:55.173Z,28.49
2017-08-30T15:00:18.024Z,28.51
2017-08-30T15:01:40.282Z,28.24
2017-08-30T15:03:02.160Z,27.97
2017-08-30T15:04:24.021Z,27.94
2017-08-30T15:05:46.560Z,27.88
2017-08-30T15:07:09.075Z,27.62
2017-08-30T15:08:31.600Z,27.4
2017-08-30T15:09:53.492Z,27.5
2017-08-30T15:11:15.713Z,27.34
2017-08-30T15:12:37.918Z,27.21
2017-08-30T15:14:00.417Z,27.25
2017-08-30T15:15:22.263Z,27.43
2017-08-30T15:16:45.401Z,27.4
2017-08-30T15:18:07.679Z,27.18
2017-08-30T15:19:29.587Z,27.18
2017-08-30T15:20:52.079Z,27
2017-08-30T15:22:14.632Z,27.22
2017-08-30T15:23:36.471Z,27.27
2017-08-30T15:24:59.001Z,27.18
2017-08-30T15:26:20.878Z,27.12
2017-08-30T15:27:43.730Z,26.97
2017-08-30T15:29:05.354Z,26.88
2017-08-30T15:30:27.202Z,26.87
2017-08-30T15:31:49.721Z,26.87
2017-08-30T15:33:12.389Z,26.65
2017-08-30T15:34:34.929Z,26.52
2017-08-30T15:35:56.788Z,26.45
2017-08-30T15:37:18.441Z,26.58
2017-08-30T15:38:41.281Z,26.66
2017-08-30T15:40:03.581Z,26.67
2017-08-30T15:41:25.680Z,26.54
2017-08-30T15:42:48.206Z,26.51
2017-08-30T15:44:10.968Z,26.37
2017-08-30T15:45:33.494Z,26.45
2017-08-30T15:46:56.001Z,26.36
2017-08-30T15:48:18.500Z,26.02
2017-08-30T15:49:41.011Z,26.02
2017-08-30T15:51:03.177Z,26.05
2017-08-30T15:52:25.675Z,26.17
2017-08-30T15:53:47.841Z,26.12
2017-08-30T15:55:09.813Z,26.21
2017-08-30T15:56:32.129Z,26.4
2017-08-30T15:57:54.310Z,26.4
2017-08-30T15:59:16.620Z,26.4
2017-08-30T16:00:39.440Z,26.21
2017-08-30T16:02:01.619Z,26.28
2017-08-30T16:03:23.782Z,26.29
2017-08-30T16:04:45.633Z,26.32
2017-08-30T16:06:08.554Z,26.39
2017-08-30T16:07:31.169Z,26.55
2017-08-30T16:08:52.680Z,26.51
2017-08-30T16:10:15.190Z,26.5
2017-08-30T16:11:37.857Z,26.47
2017-08-30T16:13:00.366Z,26.44
2017-08-30T16:14:22.528Z,26.44
2017-08-30T16:15:44.723Z,26.36
2017-08-30T16:17:07.421Z,26.25
2017-08-30T16:18:30.020Z,26.33
2017-08-30T16:19:52.549Z,26.28
2017-08-30T16:21:15.150Z,26.2
2017-08-30T16:22:38.178Z,26.32
2017-08-30T16:24:00.427Z,26.28
2017-08-30T16:25:22.291Z,26.3
2017-08-30T16:26:44.567Z,26.23
2017-08-30T16:28:07.247Z,26.12
2017-08-30T16:29:29.572Z,26.1
2017-08-30T16:30:52.087Z,26.05
2017-08-30T16:32:13.964Z,25.94
2017-08-30T16:33:36.210Z,25.85
2017-08-30T16:34:58.782Z,25.9
2017-08-30T16:36:21.331Z,25.9
2017-08-30T16:37:43.522Z,25.87
2017-08-30T16:39:06.399Z,25.7
2017-08-30T16:40:28.268Z,25.7
2017-08-30T16:41:50.500Z,25.67
2017-08-30T16:43:12.714Z,25.67
2017-08-30T16:44:35.238Z,25.58
2017-08-30T16:45:57.960Z,25.54
2017-08-30T16:47:19.873Z,25.4
2017-08-30T16:48:42.370Z,25.25
2017-08-30T16:50:05.409Z,25.25
2017-08-30T16:51:27.668Z,25.14
2017-08-30T16:52:50.201Z,25.15
2017-08-30T16:54:12.406Z,25.14
2017-08-30T16:55:35.261Z,25.09
2017-08-30T16:56:57.534Z,25
2017-08-30T16:58:20.222Z,24.93
2017-08-30T16:59:42.427Z,24.96
2017-08-30T17:01:04.980Z,24.85
2017-08-30T17:02:27.218Z,24.83
2017-08-30T17:03:49.748Z,24.83
2017-08-30T17:05:12.292Z,24.78
2017-08-30T17:06:35.223Z,24.58
2017-08-30T17:07:57.511Z,24.64
2017-08-30T17:09:20.062Z,24.57
2017-08-30T17:10:42.610Z,24.52
2017-08-30T17:12:05.188Z,24.49
2017-08-30T17:13:27.118Z,24.43
2017-08-30T17:14:49.394Z,24.37
2017-08-30T17:16:12.070Z,24.35
2017-08-30T17:17:34.965Z,24.28
2017-08-30T17:18:57.151Z,24.28
2017-08-30T17:20:19.675Z,24.22
2017-08-30T17:21:41.225Z,24.32
2017-08-30T17:23:04.075Z,24.25
2017-08-30T17:24:26.676Z,24.25
2017-08-30T17:25:48.925Z,24.09
2017-08-30T17:27:11.456Z,24.08
2017-08-30T17:28:34.362Z,23.97
2017-08-30T17:29:56.889Z,23.94
2017-08-30T17:31:18.804Z,23.97
2017-08-30T17:32:40.976Z,23.9
2017-08-30T17:34:03.865Z,23.94
2017-08-30T17:35:26.544Z,23.78
2017-08-30T17:36:49.175Z,23.79
2017-08-30T17:38:11.384Z,23.7
2017-08-30T17:39:33.923Z,23.66
2017-08-30T17:40:56.103Z,23.61
2017-08-30T17:42:18.304Z,23.61